Flight Track Log - Related Links

Times and Time Zones

All times are in EST time to prevent confusion due to time zone crossing. See the UAL4476 flight status page for this flight to view local times or setup timezone preferences in your user account.

Time Position Orientation Groundspeed Altitude Reporting Facility
EST Latitude Longitude Course Direction KTS MPH feet Rate Location/Type
Wed 02:34:38 PM 29.9658 -95.3431 36° Northeast 150 173 800  Level Houston Center
Wed 02:35:09 PM 29.9722 -95.3206 72° East 173 199 1,900 2,022 Climbing Houston Center
Wed 02:36:10 PM 30.0339 -95.3058 12° North 234 269 3,900 1,482 Climbing Houston Center
Wed 02:36:34 PM 30.0531 -95.2972 21° North 224 258 4,000 98 Climbing Houston Center
Wed 02:37:00 PM 30.2663 -95.1045 33° Northeast  Level FlightAware Approximate
Wed 02:37:11 PM 30.0994 -95.2883 North 242 278 4,000  Level Houston Center
Wed 02:37:36 PM 30.1189 -95.2800 20° North 242 278 4,000 1,672 Level Houston Center
Wed 02:38:00 PM 30.3624 -95.0301 35° Northeast  Level FlightAware Approximate
Wed 02:38:12 PM 30.1617 -95.2567 25° Northeast 250 288 5,700  Level Houston Center
Wed 02:38:38 PM 30.1778 -95.2408 40° Northeast 246 283 6,600 2,386 Climbing Houston Center
Wed 02:39:00 PM 30.4540 -94.9500 North  Level FlightAware Approximate
Wed 02:39:40 PM 30.2328 -95.1861 41° Northeast 256 295 9,200  Level Houston Center
Wed 02:40:00 PM 30.5503 -94.8803 36° Northeast  Level FlightAware Approximate
Wed 02:40:42 PM 30.3097 -95.1050 42° Northeast 320 368 10,400  Level Houston Center
Wed 02:41:44 PM 30.3847 -95.0269 42° Northeast 356 410 11,700 1,210 Climbing Houston Center
Wed 02:42:46 PM 30.4703 -94.9542 36° Northeast 378 435 12,900 1,548 Climbing Houston Center
Wed 02:43:48 PM 30.5614 -94.8850 33° Northeast 390 449 14,900 1,935 Climbing Houston Center
Wed 02:44:50 PM 30.6483 -94.8181 34° Northeast 382 440 16,900 1,452 Climbing Houston Center
Wed 02:45:52 PM 30.7353 -94.7514 33° Northeast 380 437 17,900 1,065 Climbing Houston Center
Wed 02:46:54 PM 30.8236 -94.6369 48° Northeast 400 460 19,100 1,065 Climbing Houston Center
Wed 02:47:56 PM 30.8953 -94.5297 52° Northeast 417 480 20,100 968 Climbing Houston Center
Wed 02:48:58 PM 30.9681 -94.4192 52° Northeast 428 493 21,100 968 Climbing Houston Center
Wed 02:50:00 PM 31.0431 -94.3069 52° Northeast 438 504 22,100 816 Climbing Houston Center
Wed 02:51:03 PM 31.1347 -94.1689 52° Northeast 450 518 22,800 432 Climbing Houston Center
Wed 02:52:05 PM 31.2144 -94.0492 52° Northeast 465 535 23,000 97 Climbing Houston Center
Wed 02:53:07 PM 31.2936 -93.9283 53° Northeast 470 541 23,000  Level Houston Center
Wed 02:54:09 PM 31.3728 -93.8083 52° Northeast 470 541 23,000  Level Houston Center
Wed 02:55:11 PM 31.4511 -93.6883 53° Northeast 468 539 23,000  Level Houston Center
Wed 02:56:13 PM 31.5403 -93.5506 53° Northeast 466 536 23,000  Level Houston Center
Wed 02:57:15 PM 31.6192 -93.4308 52° Northeast 465 535 23,000  Level Houston Center
Wed 02:58:17 PM 31.6981 -93.3103 52° Northeast 465 535 23,000 -290 Level Houston Center
Wed 02:59:19 PM 31.7756 -93.1894 53° Northeast 464 534 22,400 -1,104 Descending Houston Center
Wed 03:00:22 PM 31.8547 -93.0692 52° Northeast 454 522 20,700 -1,488 Descending Houston Center
Wed 03:01:24 PM 31.9231 -92.9617 53° Northeast 428 493 19,300 -1,355 Descending Houston Center
Wed 03:02:26 PM 32.0083 -92.8292 53° Northeast 425 489 17,900 -1,258 Descending Houston Center
Wed 03:03:28 PM 32.0778 -92.7200 53° Northeast 416 479 16,700 -1,161 Descending Houston Center
Wed 03:04:30 PM 32.1483 -92.6103 53° Northeast 420 483 15,500 -1,306 Descending Houston Center
Wed 03:05:32 PM 32.2139 -92.5047 54° Northeast 402 463 14,000 -1,694 Descending Houston Center
Wed 03:06:34 PM 32.2719 -92.4122 53° Northeast 360 414 12,000 -1,839 Descending Houston Center
Wed 03:07:36 PM 32.3197 -92.3311 55° Northeast 322 371 10,200 -2,304 Descending Houston Center
Wed 03:08:39 PM 32.3594 -92.2569 58° Northeast 286 329 7,200 -2,736 Descending Houston Center
Wed 03:09:41 PM 32.4028 -92.1703 59° Northeast 267 307 4,500 -1,452 Descending Houston Center
Wed 03:10:43 PM 32.4361 -92.1050 59° Northeast 262 302 4,200 -290 Descending Houston Center

Login

Don't have an account? Register now (free) for customized features, flight alerts, and more!